sensor_id;sensor_type;location;lat;lon;timestamp;pressure;altitude;pressure_sealevel;temperature;humidity
6680;BME280;3376;42.664;23.346;2023-08-07T00:02:26;94021.44;;;20.57;85.03
6680;BME280;3376;42.664;23.346;2023-08-07T00:04:53;94009.16;;;20.41;86.50
6680;BME280;3376;42.664;23.346;2023-08-07T00:07:19;94008.81;;;20.32;86.99
6680;BME280;3376;42.664;23.346;2023-08-07T00:09:46;94004.81;;;20.30;86.80
6680;BME280;3376;42.664;23.346;2023-08-07T00:12:13;94019.63;;;20.36;87.05
6680;BME280;3376;42.664;23.346;2023-08-07T00:14:41;94024.66;;;20.37;85.94
6680;BME280;3376;42.664;23.346;2023-08-07T00:17:08;94025.16;;;20.34;85.70
6680;BME280;3376;42.664;23.346;2023-08-07T00:19:35;94017.72;;;20.31;86.36
6680;BME280;3376;42.664;23.346;2023-08-07T00:22:02;94023.25;;;20.30;85.46
6680;BME280;3376;42.664;23.346;2023-08-07T00:24:28;94011.88;;;20.24;85.97
6680;BME280;3376;42.664;23.346;2023-08-07T00:26:55;94017.91;;;20.25;85.43
6680;BME280;3376;42.664;23.346;2023-08-07T00:29:22;94016.47;;;20.12;86.01
6680;BME280;3376;42.664;23.346;2023-08-07T00:31:50;94016.41;;;20.07;87.71
6680;BME280;3376;42.664;23.346;2023-08-07T00:34:17;94003.97;;;20.03;86.51
6680;BME280;3376;42.664;23.346;2023-08-07T00:36:44;94023.00;;;20.10;86.58
6680;BME280;3376;42.664;23.346;2023-08-07T00:39:10;94022.25;;;19.92;86.83
6680;BME280;3376;42.664;23.346;2023-08-07T00:41:37;94021.75;;;19.96;87.70
6680;BME280;3376;42.664;23.346;2023-08-07T00:44:04;94026.47;;;19.93;86.94
6680;BME280;3376;42.664;23.346;2023-08-07T00:46:31;94026.28;;;19.78;87.14
6680;BME280;3376;42.664;23.346;2023-08-07T00:48:59;94025.63;;;19.88;87.80
6680;BME280;3376;42.664;23.346;2023-08-07T00:51:26;94034.91;;;19.74;88.28
6680;BME280;3376;42.664;23.346;2023-08-07T00:53:53;94037.09;;;19.60;88.97
6680;BME280;3376;42.664;23.346;2023-08-07T00:56:20;94031.91;;;19.49;89.28
6680;BME280;3376;42.664;23.346;2023-08-07T00:58:48;93945.38;;;19.04;89.96
6680;BME280;3376;42.664;23.346;2023-08-07T01:01:15;94043.75;;;19.68;89.77
6680;BME280;3376;42.664;23.346;2023-08-07T01:03:42;94046.59;;;19.83;90.00
6680;BME280;3376;42.664;23.346;2023-08-07T01:06:10;94053.00;;;19.92;89.16
6680;BME280;3376;42.664;23.346;2023-08-07T01:08:37;94060.00;;;20.03;87.96
6680;BME280;3376;42.664;23.346;2023-08-07T01:11:16;94064.94;;;20.00;88.14
6680;BME280;3376;42.664;23.346;2023-08-07T01:13:49;94062.63;;;20.03;88.35
6680;BME280;3376;42.664;23.346;2023-08-07T01:16:22;94069.22;;;20.06;89.45
6680;BME280;3376;42.664;23.346;2023-08-07T01:18:53;94070.31;;;20.10;89.50
6680;BME280;3376;42.664;23.346;2023-08-07T01:21:22;94066.38;;;20.07;89.07
6680;BME280;3376;42.664;23.346;2023-08-07T01:23:50;94072.09;;;20.04;89.20
6680;BME280;3376;42.664;23.346;2023-08-07T01:26:18;94072.78;;;19.95;88.82
6680;BME280;3376;42.664;23.346;2023-08-07T01:28:50;94071.00;;;20.00;90.39
6680;BME280;3376;42.664;23.346;2023-08-07T01:31:22;94069.84;;;20.13;87.62
6680;BME280;3376;42.664;23.346;2023-08-07T01:33:56;94061.94;;;19.91;89.67
6680;BME280;3376;42.664;23.346;2023-08-07T01:36:25;94048.44;;;19.82;90.60
6680;BME280;3376;42.664;23.346;2023-08-07T01:38:56;94055.75;;;19.80;91.29
6680;BME280;3376;42.664;23.346;2023-08-07T01:41:24;94049.94;;;19.78;90.72
6680;BME280;3376;42.664;23.346;2023-08-07T01:43:51;94043.34;;;19.76;91.15
6680;BME280;3376;42.664;23.346;2023-08-07T01:46:18;94049.44;;;19.81;90.96
6680;BME280;3376;42.664;23.346;2023-08-07T01:48:45;94056.25;;;19.77;91.26
6680;BME280;3376;42.664;23.346;2023-08-07T01:51:12;94049.25;;;19.66;92.40
6680;BME280;3376;42.664;23.346;2023-08-07T01:53:38;94050.88;;;19.51;92.76
6680;BME280;3376;42.664;23.346;2023-08-07T01:56:07;94057.34;;;19.43;94.06
6680;BME280;3376;42.664;23.346;2023-08-07T01:58:33;94060.28;;;19.47;96.21
6680;BME280;3376;42.664;23.346;2023-08-07T02:01:00;94062.19;;;19.51;94.08
6680;BME280;3376;42.664;23.346;2023-08-07T02:03:27;94067.00;;;19.59;94.36
6680;BME280;3376;42.664;23.346;2023-08-07T02:05:53;94077.13;;;19.67;93.20
6680;BME280;3376;42.664;23.346;2023-08-07T02:08:20;94070.91;;;19.73;93.27
6680;BME280;3376;42.664;23.346;2023-08-07T02:10:47;94078.16;;;19.66;93.00
6680;BME280;3376;42.664;23.346;2023-08-07T02:13:15;94070.91;;;19.73;91.77
6680;BME280;3376;42.664;23.346;2023-08-07T02:15:42;94080.63;;;19.73;91.95
6680;BME280;3376;42.664;23.346;2023-08-07T02:18:08;94087.22;;;19.75;93.33
6680;BME280;3376;42.664;23.346;2023-08-07T02:20:35;94092.56;;;19.80;92.36
6680;BME280;3376;42.664;23.346;2023-08-07T02:23:02;94089.06;;;19.75;91.87
6680;BME280;3376;42.664;23.346;2023-08-07T02:25:29;94085.81;;;19.68;92.59
6680;BME280;3376;42.664;23.346;2023-08-07T02:27:55;94094.00;;;19.71;92.72
6680;BME280;3376;42.664;23.346;2023-08-07T02:30:23;94092.72;;;19.74;93.61
6680;BME280;3376;42.664;23.346;2023-08-07T02:32:50;94100.44;;;19.80;92.60
6680;BME280;3376;42.664;23.346;2023-08-07T02:35:17;94095.59;;;19.72;91.52
6680;BME280;3376;42.664;23.346;2023-08-07T02:37:43;94098.13;;;19.84;91.12
6680;BME280;3376;42.664;23.346;2023-08-07T02:40:11;94099.88;;;19.78;91.45
6680;BME280;3376;42.664;23.346;2023-08-07T02:42:40;94098.16;;;19.67;91.99
6680;BME280;3376;42.664;23.346;2023-08-07T02:45:08;94096.41;;;19.56;91.92
6680;BME280;3376;42.664;23.346;2023-08-07T02:47:36;94102.09;;;19.48;92.87
6680;BME280;3376;42.664;23.346;2023-08-07T02:50:03;94096.47;;;19.61;91.67
6680;BME280;3376;42.664;23.346;2023-08-07T02:52:30;94106.84;;;19.51;92.61
6680;BME280;3376;42.664;23.346;2023-08-07T02:54:57;94093.50;;;19.36;93.62
6680;BME280;3376;42.664;23.346;2023-08-07T02:57:24;94112.69;;;19.37;93.83
6680;BME280;3376;42.664;23.346;2023-08-07T02:59:51;94102.09;;;19.48;94.38
6680;BME280;3376;42.664;23.346;2023-08-07T03:02:18;94117.44;;;19.56;93.70
6680;BME280;3376;42.664;23.346;2023-08-07T03:04:46;94119.03;;;19.57;93.95
6680;BME280;3376;42.664;23.346;2023-08-07T03:07:12;94119.25;;;19.72;93.57
6680;BME280;3376;42.664;23.346;2023-08-07T03:09:39;94119.03;;;19.74;89.92
6680;BME280;3376;42.664;23.346;2023-08-07T03:12:07;94116.88;;;19.54;91.14
6680;BME280;3376;42.664;23.346;2023-08-07T03:14:33;94124.56;;;19.28;92.54
6680;BME280;3376;42.664;23.346;2023-08-07T03:17:00;94116.78;;;19.16;94.76
6680;BME280;3376;42.664;23.346;2023-08-07T03:19:27;94128.38;;;19.04;94.83
6680;BME280;3376;42.664;23.346;2023-08-07T03:21:55;94128.19;;;18.94;96.09
6680;BME280;3376;42.664;23.346;2023-08-07T03:24:22;94143.22;;;18.98;95.82
6680;BME280;3376;42.664;23.346;2023-08-07T03:26:48;94143.00;;;19.00;95.74
6680;BME280;3376;42.664;23.346;2023-08-07T03:29:15;94138.38;;;18.90;97.14
6680;BME280;3376;42.664;23.346;2023-08-07T03:31:42;94141.75;;;19.02;96.76
6680;BME280;3376;42.664;23.346;2023-08-07T03:34:09;94134.09;;;19.01;97.49
6680;BME280;3376;42.664;23.346;2023-08-07T03:36:35;94145.34;;;19.29;97.83
6680;BME280;3376;42.664;23.346;2023-08-07T03:39:03;94149.38;;;19.48;95.92
6680;BME280;3376;42.664;23.346;2023-08-07T03:41:30;94157.81;;;19.50;95.58
6680;BME280;3376;42.664;23.346;2023-08-07T03:43:57;94164.88;;;19.66;93.28
6680;BME280;3376;42.664;23.346;2023-08-07T03:46:23;94145.31;;;19.57;92.60
6680;BME280;3376;42.664;23.346;2023-08-07T03:48:50;94166.00;;;19.70;92.30
6680;BME280;3376;42.664;23.346;2023-08-07T03:51:17;94164.50;;;19.74;91.35
6680;BME280;3376;42.664;23.346;2023-08-07T03:53:44;94168.22;;;19.78;89.00
6680;BME280;3376;42.664;23.346;2023-08-07T03:56:12;94156.75;;;19.68;90.69
6680;BME280;3376;42.664;23.346;2023-08-07T03:58:39;94114.31;;;19.26;89.36
6680;BME280;3376;42.664;23.346;2023-08-07T04:01:06;94156.84;;;19.40;91.12
6680;BME280;3376;42.664;23.346;2023-08-07T04:03:33;94167.94;;;19.42;90.72
6680;BME280;3376;42.664;23.346;2023-08-07T04:06:01;94176.03;;;19.40;91.34
6680;BME280;3376;42.664;23.346;2023-08-07T04:08:27;94174.53;;;19.44;91.80
6680;BME280;3376;42.664;23.346;2023-08-07T04:11:00;94183.69;;;19.42;90.88
6680;BME280;3376;42.664;23.346;2023-08-07T04:13:29;94195.63;;;19.49;90.39
6680;BME280;3376;42.664;23.346;2023-08-07T04:15:56;94190.94;;;19.51;90.63
6680;BME280;3376;42.664;23.346;2023-08-07T04:18:23;94188.38;;;19.56;88.79
6680;BME280;3376;42.664;23.346;2023-08-07T04:20:50;94195.09;;;19.64;89.46
6680;BME280;3376;42.664;23.346;2023-08-07T04:23:17;94185.19;;;19.54;89.48
6680;BME280;3376;42.664;23.346;2023-08-07T04:25:44;94196.91;;;19.63;88.06
6680;BME280;3376;42.664;23.346;2023-08-07T04:28:12;94202.81;;;19.70;87.34
6680;BME280;3376;42.664;23.346;2023-08-07T04:30:40;94189.66;;;19.70;88.04
6680;BME280;3376;42.664;23.346;2023-08-07T04:33:07;94198.28;;;19.82;86.90
6680;BME280;3376;42.664;23.346;2023-08-07T04:35:33;94198.75;;;19.79;87.50
6680;BME280;3376;42.664;23.346;2023-08-07T04:38:00;94207.81;;;19.88;87.43
6680;BME280;3376;42.664;23.346;2023-08-07T04:40:27;94211.09;;;19.96;85.89
6680;BME280;3376;42.664;23.346;2023-08-07T04:42:54;94216.03;;;19.75;86.60
6680;BME280;3376;42.664;23.346;2023-08-07T04:45:21;94219.44;;;19.59;87.79
6680;BME280;3376;42.664;23.346;2023-08-07T04:47:50;94214.25;;;19.48;87.27
6680;BME280;3376;42.664;23.346;2023-08-07T04:50:17;94213.50;;;19.64;87.33
6680;BME280;3376;42.664;23.346;2023-08-07T04:52:43;94208.72;;;19.77;86.81
6680;BME280;3376;42.664;23.346;2023-08-07T04:55:10;94214.13;;;19.87;86.34
6680;BME280;3376;42.664;23.346;2023-08-07T04:57:37;94204.09;;;19.84;86.89
6680;BME280;3376;42.664;23.346;2023-08-07T05:00:05;94202.47;;;19.83;86.10
6680;BME280;3376;42.664;23.346;2023-08-07T05:02:33;94208.53;;;20.01;85.82
6680;BME280;3376;42.664;23.346;2023-08-07T05:05:01;94217.09;;;20.24;85.33
6680;BME280;3376;42.664;23.346;2023-08-07T05:07:29;94212.91;;;20.45;83.11
6680;BME280;3376;42.664;23.346;2023-08-07T05:09:56;94203.06;;;20.57;82.46
6680;BME280;3376;42.664;23.346;2023-08-07T05:12:25;94201.50;;;20.61;81.29
6680;BME280;3376;42.664;23.346;2023-08-07T05:14:51;94196.78;;;20.63;81.29
6680;BME280;3376;42.664;23.346;2023-08-07T05:17:18;94199.06;;;20.54;81.01
6680;BME280;3376;42.664;23.346;2023-08-07T05:19:45;94191.41;;;20.53;81.81
6680;BME280;3376;42.664;23.346;2023-08-07T05:22:13;94195.16;;;20.57;81.77
6680;BME280;3376;42.664;23.346;2023-08-07T05:24:40;94205.75;;;20.62;80.71
6680;BME280;3376;42.664;23.346;2023-08-07T05:27:08;94194.53;;;20.71;80.53
6680;BME280;3376;42.664;23.346;2023-08-07T05:29:35;94190.91;;;20.77;80.79
6680;BME280;3376;42.664;23.346;2023-08-07T05:32:08;94200.72;;;20.82;78.52
6680;BME280;3376;42.664;23.346;2023-08-07T05:34:35;94204.94;;;20.83;77.30
6680;BME280;3376;42.664;23.346;2023-08-07T05:37:02;94209.16;;;20.84;78.70
6680;BME280;3376;42.664;23.346;2023-08-07T05:39:30;94200.09;;;20.75;79.47
6680;BME280;3376;42.664;23.346;2023-08-07T05:41:57;94195.34;;;20.72;78.60
6680;BME280;3376;42.664;23.346;2023-08-07T05:44:24;94207.81;;;20.81;77.30
6680;BME280;3376;42.664;23.346;2023-08-07T05:46:51;94201.31;;;20.89;77.80
6680;BME280;3376;42.664;23.346;2023-08-07T05:49:19;94189.31;;;20.98;77.31
6680;BME280;3376;42.664;23.346;2023-08-07T05:51:46;94207.03;;;21.29;76.85
6680;BME280;3376;42.664;23.346;2023-08-07T05:54:12;94200.94;;;21.24;76.41
6680;BME280;3376;42.664;23.346;2023-08-07T05:56:41;94209.22;;;21.32;75.44
6680;BME280;3376;42.664;23.346;2023-08-07T05:59:07;94196.75;;;21.28;76.17
6680;BME280;3376;42.664;23.346;2023-08-07T06:01:34;94209.25;;;21.37;75.40
6680;BME280;3376;42.664;23.346;2023-08-07T06:04:02;94211.56;;;21.60;76.62
6680;BME280;3376;42.664;23.346;2023-08-07T06:06:29;94210.19;;;21.79;74.40
6680;BME280;3376;42.664;23.346;2023-08-07T06:08:59;94213.09;;;21.83;73.18
6680;BME280;3376;42.664;23.346;2023-08-07T06:11:26;94203.84;;;21.80;72.26
6680;BME280;3376;42.664;23.346;2023-08-07T06:13:55;94204.53;;;21.71;72.23
6680;BME280;3376;42.664;23.346;2023-08-07T06:16:21;94203.91;;;21.85;72.82
6680;BME280;3376;42.664;23.346;2023-08-07T06:18:48;94202.34;;;21.89;72.48
6680;BME280;3376;42.664;23.346;2023-08-07T06:21:15;94194.69;;;21.88;72.82
6680;BME280;3376;42.664;23.346;2023-08-07T06:23:42;94192.88;;;21.93;71.79
6680;BME280;3376;42.664;23.346;2023-08-07T06:26:08;94189.75;;;22.01;71.08
6680;BME280;3376;42.664;23.346;2023-08-07T06:28:35;94190.97;;;22.26;71.87
6680;BME280;3376;42.664;23.346;2023-08-07T06:31:04;94191.09;;;22.46;70.42
6680;BME280;3376;42.664;23.346;2023-08-07T06:33:31;94186.69;;;22.56;67.56
6680;BME280;3376;42.664;23.346;2023-08-07T06:35:58;94189.19;;;22.78;68.47
6680;BME280;3376;42.664;23.346;2023-08-07T06:38:25;94191.34;;;22.96;66.84
6680;BME280;3376;42.664;23.346;2023-08-07T06:40:52;94188.44;;;22.97;63.94
6680;BME280;3376;42.664;23.346;2023-08-07T06:43:19;94195.91;;;23.10;65.01
6680;BME280;3376;42.664;23.346;2023-08-07T06:45:46;94188.75;;;23.11;62.01
6680;BME280;3376;42.664;23.346;2023-08-07T06:48:15;94202.53;;;23.23;60.33
6680;BME280;3376;42.664;23.346;2023-08-07T06:50:41;94210.78;;;23.42;57.38
6680;BME280;3376;42.664;23.346;2023-08-07T06:53:08;94202.34;;;23.55;55.37
6680;BME280;3376;42.664;23.346;2023-08-07T06:55:35;94166.91;;;23.41;59.80
6680;BME280;3376;42.664;23.346;2023-08-07T06:58:02;94206.59;;;23.56;58.43
6680;BME280;3376;42.664;23.346;2023-08-07T07:00:28;94197.56;;;23.47;59.29
6680;BME280;3376;42.664;23.346;2023-08-07T07:02:55;94211.59;;;23.57;57.26
6680;BME280;3376;42.664;23.346;2023-08-07T07:05:23;94212.66;;;23.56;55.73
6680;BME280;3376;42.664;23.346;2023-08-07T07:07:50;94205.81;;;23.65;54.12
6680;BME280;3376;42.664;23.346;2023-08-07T07:10:17;94196.28;;;23.79;55.29
6680;BME280;3376;42.664;23.346;2023-08-07T07:12:43;94189.41;;;23.83;54.57
6680;BME280;3376;42.664;23.346;2023-08-07T07:15:10;94191.28;;;23.93;54.67
6680;BME280;3376;42.664;23.346;2023-08-07T07:17:37;94200.25;;;24.12;55.31
6680;BME280;3376;42.664;23.346;2023-08-07T07:20:05;94195.22;;;23.95;53.01
6680;BME280;3376;42.664;23.346;2023-08-07T07:22:34;94197.63;;;24.07;52.65
6680;BME280;3376;42.664;23.346;2023-08-07T07:25:01;94197.91;;;24.00;52.98
6680;BME280;3376;42.664;23.346;2023-08-07T07:27:28;94193.66;;;24.04;53.79
6680;BME280;3376;42.664;23.346;2023-08-07T07:29:54;94197.63;;;24.12;55.53
6680;BME280;3376;42.664;23.346;2023-08-07T07:32:21;94192.03;;;24.33;53.89
6680;BME280;3376;42.664;23.346;2023-08-07T07:34:48;94194.66;;;24.49;53.52
6680;BME280;3376;42.664;23.346;2023-08-07T07:37:15;94188.81;;;24.52;53.10
6680;BME280;3376;42.664;23.346;2023-08-07T07:39:43;94195.16;;;24.56;51.82
6680;BME280;3376;42.664;23.346;2023-08-07T07:42:10;94191.50;;;24.36;51.61
6680;BME280;3376;42.664;23.346;2023-08-07T07:44:37;94197.34;;;24.33;51.91
6680;BME280;3376;42.664;23.346;2023-08-07T07:47:05;94178.28;;;24.31;53.06
6680;BME280;3376;42.664;23.346;2023-08-07T07:49:32;94198.31;;;24.68;52.89
6680;BME280;3376;42.664;23.346;2023-08-07T07:51:59;94184.81;;;24.69;51.70
6680;BME280;3376;42.664;23.346;2023-08-07T07:54:28;94178.19;;;24.72;51.48
6680;BME280;3376;42.664;23.346;2023-08-07T07:56:56;94187.13;;;24.86;50.68
6680;BME280;3376;42.664;23.346;2023-08-07T07:59:22;94158.56;;;24.78;50.64
6680;BME280;3376;42.664;23.346;2023-08-07T08:01:49;94197.19;;;24.94;51.04
6680;BME280;3376;42.664;23.346;2023-08-07T08:04:16;94185.97;;;25.12;50.49
6680;BME280;3376;42.664;23.346;2023-08-07T08:06:43;94184.34;;;25.21;49.24
6680;BME280;3376;42.664;23.346;2023-08-07T08:09:10;94190.16;;;25.23;49.35
6680;BME280;3376;42.664;23.346;2023-08-07T08:11:36;94177.97;;;25.17;48.46
6680;BME280;3376;42.664;23.346;2023-08-07T08:14:05;94192.75;;;25.38;48.41
6680;BME280;3376;42.664;23.346;2023-08-07T08:16:32;94181.06;;;25.34;49.44
6680;BME280;3376;42.664;23.346;2023-08-07T08:18:58;94185.84;;;25.37;49.08
6680;BME280;3376;42.664;23.346;2023-08-07T08:21:25;94180.25;;;25.43;48.71
6680;BME280;3376;42.664;23.346;2023-08-07T08:23:52;94179.97;;;25.45;48.32
6680;BME280;3376;42.664;23.346;2023-08-07T08:26:18;94184.03;;;25.71;47.10
6680;BME280;3376;42.664;23.346;2023-08-07T08:28:45;94180.34;;;26.01;46.05
6680;BME280;3376;42.664;23.346;2023-08-07T08:31:13;94181.59;;;26.13;45.98
6680;BME280;3376;42.664;23.346;2023-08-07T08:33:40;94178.75;;;26.33;45.69
6680;BME280;3376;42.664;23.346;2023-08-07T08:36:07;94170.47;;;26.35;44.17
6680;BME280;3376;42.664;23.346;2023-08-07T08:38:33;94173.72;;;26.55;43.97
6680;BME280;3376;42.664;23.346;2023-08-07T08:41:02;94177.31;;;26.70;44.77
6680;BME280;3376;42.664;23.346;2023-08-07T08:43:34;94169.97;;;26.85;43.71
6680;BME280;3376;42.664;23.346;2023-08-07T08:46:01;94165.91;;;26.93;42.60
6680;BME280;3376;42.664;23.346;2023-08-07T08:48:34;94165.56;;;26.76;43.57
6680;BME280;3376;42.664;23.346;2023-08-07T08:51:02;94162.84;;;26.81;43.50
6680;BME280;3376;42.664;23.346;2023-08-07T08:53:30;94163.78;;;26.90;43.27
6680;BME280;3376;42.664;23.346;2023-08-07T08:55:57;94160.34;;;26.89;43.66
6680;BME280;3376;42.664;23.346;2023-08-07T08:58:24;94163.97;;;26.75;43.40
6680;BME280;3376;42.664;23.346;2023-08-07T09:00:51;94145.75;;;26.39;44.70
6680;BME280;3376;42.664;23.346;2023-08-07T09:03:18;94158.00;;;26.35;44.06
6680;BME280;3376;42.664;23.346;2023-08-07T09:05:47;94158.72;;;26.70;43.61
6680;BME280;3376;42.664;23.346;2023-08-07T09:08:16;94155.25;;;26.69;43.80
6680;BME280;3376;42.664;23.346;2023-08-07T09:10:43;94071.19;;;26.31;42.16
6680;BME280;3376;42.664;23.346;2023-08-07T09:13:14;94141.31;;;27.01;41.87
6680;BME280;3376;42.664;23.346;2023-08-07T09:15:43;94145.47;;;27.30;41.46
6680;BME280;3376;42.664;23.346;2023-08-07T09:18:13;94151.16;;;27.19;41.34
6680;BME280;3376;42.664;23.346;2023-08-07T09:20:40;94143.63;;;27.26;41.42
6680;BME280;3376;42.664;23.346;2023-08-07T09:23:08;94140.84;;;27.36;41.99
6680;BME280;3376;42.664;23.346;2023-08-07T09:25:35;94097.53;;;27.12;41.91
6680;BME280;3376;42.664;23.346;2023-08-07T09:28:03;94154.94;;;27.36;41.00
6680;BME280;3376;42.664;23.346;2023-08-07T09:30:31;94131.28;;;27.35;40.60
6680;BME280;3376;42.664;23.346;2023-08-07T09:32:59;94126.59;;;27.27;41.77
6680;BME280;3376;42.664;23.346;2023-08-07T09:35:26;94144.97;;;27.47;41.23
6680;BME280;3376;42.664;23.346;2023-08-07T09:37:53;94133.44;;;27.51;41.37
6680;BME280;3376;42.664;23.346;2023-08-07T09:40:21;94139.81;;;27.69;41.33
6680;BME280;3376;42.664;23.346;2023-08-07T09:42:50;94140.03;;;27.72;40.76
6680;BME280;3376;42.664;23.346;2023-08-07T09:45:21;94136.22;;;27.97;41.03
6680;BME280;3376;42.664;23.346;2023-08-07T09:47:58;94135.38;;;28.29;39.91
6680;BME280;3376;42.664;23.346;2023-08-07T09:50:25;94133.31;;;28.39;40.73
6680;BME280;3376;42.664;23.346;2023-08-07T09:52:53;94135.78;;;28.36;39.90
6680;BME280;3376;42.664;23.346;2023-08-07T09:55:22;94134.00;;;28.31;39.57
6680;BME280;3376;42.664;23.346;2023-08-07T09:57:50;94129.31;;;28.55;40.19
6680;BME280;3376;42.664;23.346;2023-08-07T10:00:18;94126.63;;;28.69;39.80
6680;BME280;3376;42.664;23.346;2023-08-07T10:02:47;94133.03;;;28.54;39.08
6680;BME280;3376;42.664;23.346;2023-08-07T10:05:14;94128.50;;;28.68;39.21
6680;BME280;3376;42.664;23.346;2023-08-07T10:07:41;94127.16;;;28.57;39.18
6680;BME280;3376;42.664;23.346;2023-08-07T10:10:09;94132.72;;;28.42;39.43
6680;BME280;3376;42.664;23.346;2023-08-07T10:12:37;94112.31;;;28.51;39.70
6680;BME280;3376;42.664;23.346;2023-08-07T10:15:05;94131.47;;;28.67;39.20
6680;BME280;3376;42.664;23.346;2023-08-07T10:17:33;94137.91;;;28.66;39.01
6680;BME280;3376;42.664;23.346;2023-08-07T10:19:59;94109.94;;;28.63;38.71
6680;BME280;3376;42.664;23.346;2023-08-07T10:22:29;94130.78;;;28.61;39.30
6680;BME280;3376;42.664;23.346;2023-08-07T10:24:58;94130.47;;;28.76;39.53
6680;BME280;3376;42.664;23.346;2023-08-07T10:27:29;94126.81;;;29.00;40.22
6680;BME280;3376;42.664;23.346;2023-08-07T10:30:00;94130.66;;;28.93;38.50
6680;BME280;3376;42.664;23.346;2023-08-07T10:32:28;94134.50;;;29.15;38.92
6680;BME280;3376;42.664;23.346;2023-08-07T10:34:55;94105.56;;;28.95;39.01
6680;BME280;3376;42.664;23.346;2023-08-07T10:37:38;94114.03;;;29.24;36.98
6680;BME280;3376;42.664;23.346;2023-08-07T10:40:07;94115.34;;;29.13;37.57
6680;BME280;3376;42.664;23.346;2023-08-07T10:42:51;94118.38;;;29.06;38.10
6680;BME280;3376;42.664;23.346;2023-08-07T10:45:20;94116.53;;;29.20;38.15
6680;BME280;3376;42.664;23.346;2023-08-07T10:47:57;94122.31;;;29.36;37.75
6680;BME280;3376;42.664;23.346;2023-08-07T10:50:28;94122.13;;;29.32;37.85
6680;BME280;3376;42.664;23.346;2023-08-07T10:52:55;94115.97;;;29.32;37.09
6680;BME280;3376;42.664;23.346;2023-08-07T10:55:23;94098.81;;;29.24;38.08
6680;BME280;3376;42.664;23.346;2023-08-07T10:57:50;94110.03;;;29.35;38.05
6680;BME280;3376;42.664;23.346;2023-08-07T11:00:25;94115.50;;;29.52;36.99
6680;BME280;3376;42.664;23.346;2023-08-07T11:02:52;94105.81;;;29.56;37.23
6680;BME280;3376;42.664;23.346;2023-08-07T11:05:19;94107.03;;;29.50;37.84
6680;BME280;3376;42.664;23.346;2023-08-07T11:07:46;94096.56;;;29.53;37.00
6680;BME280;3376;42.664;23.346;2023-08-07T11:10:14;94093.31;;;29.65;37.11
6680;BME280;3376;42.664;23.346;2023-08-07T11:12:41;94102.13;;;29.65;37.45
6680;BME280;3376;42.664;23.346;2023-08-07T11:15:12;94087.16;;;29.78;37.53
6680;BME280;3376;42.664;23.346;2023-08-07T11:17:41;94075.06;;;29.80;36.72
6680;BME280;3376;42.664;23.346;2023-08-07T11:20:09;94073.28;;;29.54;36.21
6680;BME280;3376;42.664;23.346;2023-08-07T11:22:38;94073.13;;;29.15;37.20
6680;BME280;3376;42.664;23.346;2023-08-07T11:25:07;94075.75;;;28.92;38.99
6680;BME280;3376;42.664;23.346;2023-08-07T11:27:39;94065.63;;;29.03;37.32
6680;BME280;3376;42.664;23.346;2023-08-07T11:30:11;94064.41;;;29.23;36.54
6680;BME280;3376;42.664;23.346;2023-08-07T11:32:38;94064.00;;;29.29;36.93
6680;BME280;3376;42.664;23.346;2023-08-07T11:35:08;94069.22;;;29.56;36.59
6680;BME280;3376;42.664;23.346;2023-08-07T11:37:35;94057.94;;;29.59;36.77
6680;BME280;3376;42.664;23.346;2023-08-07T11:40:02;94066.25;;;29.58;37.37
6680;BME280;3376;42.664;23.346;2023-08-07T11:42:29;94065.47;;;29.57;37.21
6680;BME280;3376;42.664;23.346;2023-08-07T11:44:56;94062.66;;;29.62;37.09
6680;BME280;3376;42.664;23.346;2023-08-07T11:47:23;94057.38;;;29.49;37.50
6680;BME280;3376;42.664;23.346;2023-08-07T11:49:52;94064.06;;;29.60;37.03
6680;BME280;3376;42.664;23.346;2023-08-07T11:52:20;94057.84;;;29.95;37.00
6680;BME280;3376;42.664;23.346;2023-08-07T11:54:49;94068.16;;;30.10;36.01
6680;BME280;3376;42.664;23.346;2023-08-07T11:57:16;94054.75;;;30.01;34.88
6680;BME280;3376;42.664;23.346;2023-08-07T11:59:47;94057.38;;;29.93;35.95
6680;BME280;3376;42.664;23.346;2023-08-07T12:02:14;94066.47;;;30.23;35.97
6680;BME280;3376;42.664;23.346;2023-08-07T12:04:41;94068.47;;;30.39;35.77
6680;BME280;3376;42.664;23.346;2023-08-07T12:07:08;94054.25;;;30.69;34.91
6680;BME280;3376;42.664;23.346;2023-08-07T12:09:38;94049.22;;;30.76;34.08
6680;BME280;3376;42.664;23.346;2023-08-07T12:12:06;94041.94;;;30.68;34.72
6680;BME280;3376;42.664;23.346;2023-08-07T12:14:33;94044.75;;;30.55;34.97
6680;BME280;3376;42.664;23.346;2023-08-07T12:17:01;94037.69;;;30.59;35.41
6680;BME280;3376;42.664;23.346;2023-08-07T12:19:36;94045.34;;;30.43;34.77
6680;BME280;3376;42.664;23.346;2023-08-07T12:22:06;94041.53;;;30.27;35.08
6680;BME280;3376;42.664;23.346;2023-08-07T12:24:35;94024.72;;;29.96;36.36
6680;BME280;3376;42.664;23.346;2023-08-07T12:27:04;94035.72;;;29.94;36.16
6680;BME280;3376;42.664;23.346;2023-08-07T12:29:31;94037.38;;;29.82;36.17
6680;BME280;3376;42.664;23.346;2023-08-07T12:31:57;94032.31;;;30.11;36.47
6680;BME280;3376;42.664;23.346;2023-08-07T12:34:26;94034.81;;;30.08;36.20
6680;BME280;3376;42.664;23.346;2023-08-07T12:36:53;94030.69;;;30.01;36.85
6680;BME280;3376;42.664;23.346;2023-08-07T12:39:20;94033.38;;;29.71;37.59
6680;BME280;3376;42.664;23.346;2023-08-07T12:41:47;94040.34;;;29.36;38.72
6680;BME280;3376;42.664;23.346;2023-08-07T12:44:16;94053.03;;;29.31;38.54
6680;BME280;3376;42.664;23.346;2023-08-07T12:46:43;94058.13;;;29.19;39.54
6680;BME280;3376;42.664;23.346;2023-08-07T12:49:10;94049.00;;;29.20;38.70
6680;BME280;3376;42.664;23.346;2023-08-07T12:51:36;94038.69;;;29.27;39.08
6680;BME280;3376;42.664;23.346;2023-08-07T12:54:03;94048.22;;;29.19;39.00
6680;BME280;3376;42.664;23.346;2023-08-07T12:56:30;94057.38;;;28.91;40.11
6680;BME280;3376;42.664;23.346;2023-08-07T12:58:57;94058.00;;;28.61;39.54
6680;BME280;3376;42.664;23.346;2023-08-07T13:01:25;94056.63;;;28.36;40.79
6680;BME280;3376;42.664;23.346;2023-08-07T13:03:52;94038.63;;;28.15;41.65
6680;BME280;3376;42.664;23.346;2023-08-07T13:06:19;94055.06;;;27.90;42.36
6680;BME280;3376;42.664;23.346;2023-08-07T13:08:45;94070.63;;;27.83;43.03
6680;BME280;3376;42.664;23.346;2023-08-07T13:11:12;94067.25;;;27.77;43.76
6680;BME280;3376;42.664;23.346;2023-08-07T13:13:39;94065.78;;;27.71;43.72